Time;durP1;ratioP1;P1;durP2;ratioP2;P2;SDS_P1;SDS_P2;PMS_P1;PMS_P2;Temp;Humidity;BMP_temperature;BMP_pressure;BME280_temperature;BME280_humidity;BME280_pressure;Samples;Min_cycle;Max_cycle;Signal;HPM_P1;HPM_P2
2021/06/14 00:01:29;;;;;;;8.70;4.30;;;15.30;99.90;;;;;;5051719;28;20460;-49
2021/06/14 00:03:54;;;;;;;8.27;3.90;;;15.40;99.90;;;;;;5051158;28;20445;-49
2021/06/14 00:06:20;;;;;;;7.20;3.85;;;15.30;99.90;;;;;;5050800;28;20417;-49
2021/06/14 00:08:46;;;;;;;8.30;3.67;;;15.30;99.90;;;;;;5051505;28;20445;-50
2021/06/14 00:11:12;;;;;;;12.52;4.30;;;15.40;99.90;;;;;;5050777;28;20793;-50
2021/06/14 00:13:39;;;;;;;7.10;3.70;;;15.40;99.90;;;;;;5066843;28;20386;-49
2021/06/14 00:16:10;;;;;;;7.60;4.30;;;15.30;99.90;;;;;;5050708;28;20871;-50
2021/06/14 00:18:36;;;;;;;9.90;4.38;;;15.30;99.90;;;;;;5051365;28;20381;-49
2021/06/14 00:21:08;;;;;;;9.88;4.32;;;15.20;99.90;;;;;;5065920;28;20777;-53
2021/06/14 00:23:34;;;;;;;9.13;4.20;;;15.20;99.90;;;;;;5051266;28;20385;-49
2021/06/14 00:26:02;;;;;;;8.93;4.67;;;15.20;99.90;;;;;;5050930;28;20870;-53
2021/06/14 00:28:28;;;;;;;9.85;4.20;;;15.10;99.90;;;;;;5051062;28;20390;-49
2021/06/14 00:30:54;;;;;;;8.40;4.35;;;15.10;99.90;;;;;;5050985;28;20735;-49
2021/06/14 00:33:22;;;;;;;8.00;4.50;;;15.00;99.90;;;;;;5050050;28;20547;-50
2021/06/14 00:35:48;;;;;;;8.32;4.10;;;14.80;99.90;;;;;;5050683;28;20378;-49
2021/06/14 00:38:15;;;;;;;9.80;4.30;;;14.80;99.90;;;;;;5050081;28;20374;-49
2021/06/14 00:40:42;;;;;;;8.43;4.13;;;14.80;99.90;;;;;;5050717;28;20386;-49
2021/06/14 00:43:09;;;;;;;9.38;4.40;;;14.80;99.90;;;;;;5064391;28;20381;-49
2021/06/14 00:45:39;;;;;;;9.57;4.10;;;14.80;99.90;;;;;;5050926;28;20370;-49
2021/06/14 00:48:05;;;;;;;11.20;4.32;;;14.70;99.90;;;;;;5049971;28;20377;-49
2021/06/14 00:50:54;;;;;;;7.67;4.50;;;14.60;99.90;;;;;;5050570;28;20407;-51
2021/06/14 00:53:35;;;;;;;8.90;4.93;;;14.60;99.90;;;;;;5049662;28;20488;-49
2021/06/14 00:56:03;;;;;;;9.57;4.90;;;14.60;99.90;;;;;;5050301;28;20428;-53
2021/06/14 00:58:29;;;;;;;9.60;4.32;;;14.70;99.90;;;;;;5050576;28;20465;-49
2021/06/14 01:00:56;;;;;;;9.68;4.40;;;14.60;99.90;;;;;;5050437;28;20830;-49
2021/06/14 01:03:22;;;;;;;8.90;4.60;;;14.60;99.90;;;;;;5049274;28;20408;-49
2021/06/14 01:05:51;;;;;;;7.85;3.90;;;14.50;99.90;;;;;;5050171;28;20397;-49
2021/06/14 01:08:17;;;;;;;9.13;4.10;;;14.40;99.90;;;;;;5049255;28;20385;-51
2021/06/14 01:10:44;;;;;;;8.25;4.65;;;14.30;99.90;;;;;;5050469;28;20416;-50
2021/06/14 01:13:37;;;;;;;10.00;4.63;;;14.20;99.90;;;;;;5049426;28;20405;-49
2021/06/14 01:16:12;;;;;;;9.15;4.78;;;14.20;99.90;;;;;;5049619;28;20470;-53
2021/06/14 01:18:48;;;;;;;7.40;4.30;;;14.30;99.90;;;;;;5050113;28;20385;-49
2021/06/14 01:21:27;;;;;;;9.27;4.20;;;14.30;99.90;;;;;;5049147;28;20426;-49
2021/06/14 01:24:08;;;;;;;7.90;4.30;;;14.40;99.90;;;;;;5050040;28;20426;-49
2021/06/14 01:26:43;;;;;;;9.32;4.53;;;14.40;99.90;;;;;;5050257;28;20991;-50
2021/06/14 01:29:10;;;;;;;7.80;4.63;;;14.40;99.90;;;;;;5049464;28;20530;-49
2021/06/14 01:31:37;;;;;;;9.00;4.78;;;14.30;99.90;;;;;;5049804;28;20882;-51
2021/06/14 01:34:04;;;;;;;9.90;4.60;;;14.10;99.90;;;;;;5049495;28;20394;-53
2021/06/14 01:36:34;;;;;;;8.55;4.55;;;13.90;99.90;;;;;;5049554;28;20385;-49
2021/06/14 01:39:02;;;;;;;8.57;4.47;;;14.00;99.90;;;;;;5049887;28;20393;-49
2021/06/14 01:41:30;;;;;;;9.35;5.05;;;14.00;99.90;;;;;;5049694;28;20376;-49
2021/06/14 01:43:58;;;;;;;8.45;4.60;;;14.00;99.90;;;;;;5049913;28;20855;-49
2021/06/14 01:46:28;;;;;;;10.60;5.00;;;14.00;99.90;;;;;;5049175;28;20456;-49
2021/06/14 01:48:54;;;;;;;8.27;4.93;;;14.00;99.90;;;;;;5049624;28;20407;-49
2021/06/14 01:51:27;;;;;;;9.03;5.00;;;14.00;99.90;;;;;;5048873;28;20418;-49
2021/06/14 01:54:03;;;;;;;8.15;5.35;;;14.00;99.90;;;;;;5049941;28;20377;-49
2021/06/14 01:56:40;;;;;;;10.75;5.20;;;13.90;99.90;;;;;;5049358;28;20382;-49
2021/06/14 01:59:10;;;;;;;10.65;5.10;;;13.90;99.90;;;;;;5048738;28;20397;-51
2021/06/14 02:01:38;;;;;;;8.32;5.05;;;13.90;99.90;;;;;;5049208;28;21069;-48
2021/06/14 02:04:04;;;;;;;9.52;4.85;;;13.90;99.90;;;;;;5048846;28;20535;-53
2021/06/14 02:06:33;;;;;;;9.40;5.18;;;13.80;99.90;;;;;;5049170;28;20386;-49
2021/06/14 02:09:02;;;;;;;9.20;5.30;;;13.70;99.90;;;;;;5049499;28;20405;-50
2021/06/14 02:11:31;;;;;;;10.63;4.90;;;13.70;99.90;;;;;;5048716;28;20464;-50
2021/06/14 02:13:58;;;;;;;10.25;5.75;;;13.70;99.90;;;;;;5049671;28;20456;-50
2021/06/14 02:16:25;;;;;;;9.13;4.83;;;13.80;99.90;;;;;;5048797;28;20468;-49
2021/06/14 02:18:51;;;;;;;9.30;5.30;;;13.80;99.90;;;;;;5049442;28;20409;-49
2021/06/14 02:21:18;;;;;;;10.80;5.00;;;13.80;99.90;;;;;;5048578;28;20885;-50
2021/06/14 02:23:44;;;;;;;10.02;5.70;;;13.80;99.90;;;;;;5049141;28;20416;-49
2021/06/14 02:26:10;;;;;;;8.80;5.10;;;13.70;99.90;;;;;;5048667;28;20417;-49
2021/06/14 02:28:36;;;;;;;10.45;5.80;;;13.50;99.90;;;;;;5049330;28;20731;-49
2021/06/14 02:31:03;;;;;;;9.73;5.68;;;13.50;99.90;;;;;;5049148;28;20385;-53
2021/06/14 02:33:28;;;;;;;8.93;5.20;;;13.50;99.90;;;;;;5048671;28;20384;-49
2021/06/14 02:35:55;;;;;;;9.57;4.80;;;13.40;99.90;;;;;;5049092;28;20483;-49
2021/06/14 02:38:21;;;;;;;10.00;5.40;;;13.30;99.90;;;;;;5048484;28;20559;-49
2021/06/14 02:40:47;;;;;;;10.07;5.30;;;13.40;99.90;;;;;;5049626;28;20389;-51
2021/06/14 02:43:12;;;;;;;9.57;5.00;;;13.50;99.90;;;;;;5048489;28;20717;-49
2021/06/14 02:45:39;;;;;;;8.75;5.00;;;13.40;99.90;;;;;;5049205;28;20392;-49
2021/06/14 02:48:07;;;;;;;9.30;5.10;;;13.50;99.90;;;;;;5048585;28;20378;-53
2021/06/14 02:50:37;;;;;;;8.60;4.90;;;13.60;99.90;;;;;;5049237;28;20478;-49
2021/06/14 02:53:08;;;;;;;9.20;5.40;;;13.50;99.90;;;;;;5049047;28;20384;-54
2021/06/14 02:55:37;;;;;;;10.05;5.28;;;13.50;99.90;;;;;;5048873;28;20728;-49
2021/06/14 02:58:04;;;;;;;9.05;5.05;;;13.50;99.90;;;;;;5049204;28;20860;-53
2021/06/14 03:00:32;;;;;;;10.00;5.07;;;13.50;99.90;;;;;;5049112;28;20374;-49
2021/06/14 03:03:00;;;;;;;10.43;5.30;;;13.40;99.90;;;;;;5048842;28;20856;-49
2021/06/14 03:05:27;;;;;;;9.20;4.90;;;13.50;99.90;;;;;;5063237;28;20489;-49
2021/06/14 03:07:55;;;;;;;8.40;4.88;;;13.50;99.90;;;;;;5051727;28;20374;-50
2021/06/14 03:10:23;;;;;;;9.05;5.18;;;13.50;99.90;;;;;;5051830;28;20424;-50
2021/06/14 03:12:53;;;;;;;10.15;5.07;;;13.50;99.90;;;;;;5068167;28;20873;-50
2021/06/14 03:15:21;;;;;;;9.93;5.40;;;13.50;99.90;;;;;;5051957;28;20388;-49
2021/06/14 03:17:47;;;;;;;9.80;5.45;;;13.40;99.90;;;;;;5052586;28;20850;-49
2021/06/14 03:20:13;;;;;;;9.07;5.43;;;13.20;99.90;;;;;;5051717;28;20460;-49
2021/06/14 03:22:40;;;;;;;8.67;4.90;;;13.20;99.90;;;;;;5052904;28;20389;-49
2021/06/14 03:25:07;;;;;;;10.30;5.75;;;13.20;99.90;;;;;;5051491;28;20385;-52
2021/06/14 03:27:33;;;;;;;10.18;5.30;;;13.10;99.90;;;;;;5052127;28;20381;-52
2021/06/14 03:30:00;;;;;;;13.88;6.30;;;13.00;99.90;;;;;;5067753;28;20459;-49
2021/06/14 03:32:26;;;;;;;13.63;5.45;;;13.00;99.90;;;;;;5050824;28;20522;-49
2021/06/14 03:34:54;;;;;;;12.07;6.10;;;13.00;99.90;;;;;;5052395;28;20397;-50
2021/06/14 03:37:20;;;;;;;11.95;6.30;;;13.10;99.90;;;;;;5051500;28;20374;-49
2021/06/14 03:39:46;;;;;;;14.98;5.88;;;13.10;99.90;;;;;;5052169;28;20390;-49
2021/06/14 03:42:18;;;;;;;12.27;6.10;;;13.10;99.90;;;;;;5051014;28;20373;-49
2021/06/14 03:44:44;;;;;;;10.15;5.70;;;13.20;99.90;;;;;;5051754;28;20851;-49
2021/06/14 03:47:10;;;;;;;11.73;5.70;;;13.30;99.90;;;;;;5051295;28;20737;-49
2021/06/14 03:49:35;;;;;;;10.70;5.50;;;13.30;99.90;;;;;;5051632;28;20458;-49
2021/06/14 03:52:01;;;;;;;10.80;6.00;;;13.30;99.90;;;;;;5051532;28;20386;-49
2021/06/14 03:54:27;;;;;;;10.97;6.00;;;13.40;99.90;;;;;;5049574;28;21254;-49
2021/06/14 03:56:52;;;;;;;12.48;6.13;;;13.50;99.90;;;;;;5051277;28;20481;-49
2021/06/14 03:59:18;;;;;;;11.77;5.83;;;13.50;99.90;;;;;;5050572;28;20454;-49
2021/06/14 04:01:44;;;;;;;10.25;5.80;;;13.50;99.90;;;;;;5051236;28;20476;-49
2021/06/14 04:04:54;;;;;;;11.23;6.03;;;13.50;99.90;;;;;;5050404;28;20410;-49
2021/06/14 04:06:58;;;;;;;13.10;6.03;;;13.60;99.90;;;;;;5045579;28;20755;-50
2021/06/14 04:09:24;;;;;;;10.15;5.85;;;13.70;99.90;;;;;;5050649;28;20420;-49
2021/06/14 04:11:50;;;;;;;9.70;5.10;;;13.80;99.90;;;;;;5048420;28;20390;-49
2021/06/14 04:14:15;;;;;;;11.05;6.57;;;13.90;99.90;;;;;;5050792;28;20381;-49
2021/06/14 04:16:41;;;;;;;9.40;5.80;;;13.90;99.90;;;;;;5050922;28;20389;-49
2021/06/14 04:19:07;;;;;;;9.73;5.77;;;13.90;99.90;;;;;;5049896;28;20476;-53
2021/06/14 04:21:32;;;;;;;10.20;5.70;;;13.90;99.90;;;;;;5048311;28;20388;-49
2021/06/14 04:23:58;;;;;;;9.50;5.30;;;14.00;99.90;;;;;;5051288;28;20373;-49
2021/06/14 04:26:23;;;;;;;10.93;5.50;;;14.10;99.90;;;;;;5050150;28;21219;-50
2021/06/14 04:28:49;;;;;;;9.80;5.53;;;14.10;99.90;;;;;;5051070;28;21240;-48
2021/06/14 04:31:15;;;;;;;12.10;6.00;;;14.20;99.90;;;;;;5050282;28;20378;-48
2021/06/14 04:33:41;;;;;;;10.75;5.78;;;14.30;99.90;;;;;;5051172;28;20484;-48
2021/06/14 04:36:07;;;;;;;13.00;6.20;;;14.40;99.90;;;;;;5050269;28;20465;-52
2021/06/14 04:38:34;;;;;;;12.70;5.97;;;14.60;99.90;;;;;;5050651;28;20413;-49
2021/06/14 04:41:00;;;;;;;10.80;6.00;;;14.70;99.90;;;;;;5050886;28;20385;-48
2021/06/14 04:43:26;;;;;;;10.40;6.03;;;14.80;99.90;;;;;;5049622;28;20981;-48
2021/06/14 04:45:52;;;;;;;10.27;5.90;;;14.90;99.90;;;;;;5050324;28;20385;-49
2021/06/14 04:48:17;;;;;;;11.15;6.03;;;15.00;99.90;;;;;;5046921;28;20409;-48
2021/06/14 04:50:43;;;;;;;12.30;5.60;;;15.10;99.90;;;;;;5045985;28;20890;-49
2021/06/14 04:53:09;;;;;;;8.55;5.88;;;15.30;99.90;;;;;;5049419;28;20402;-49
2021/06/14 04:55:34;;;;;;;12.73;5.70;;;15.60;99.90;;;;;;5050130;28;20385;-48
2021/06/14 04:58:00;;;;;;;10.33;5.50;;;16.20;99.90;;;;;;5049649;28;20867;-51
2021/06/14 05:00:27;;;;;;;9.33;4.53;;;17.30;99.90;;;;;;5049438;28;20450;-52
2021/06/14 05:02:53;;;;;;;8.20;4.80;;;18.40;99.90;;;;;;5047338;28;20385;-49
2021/06/14 05:05:18;;;;;;;13.20;5.17;;;19.90;99.90;;;;;;5047432;28;20420;-49
2021/06/14 05:07:44;;;;;;;11.40;5.05;;;21.20;99.90;;;;;;5049737;28;20913;-49
2021/06/14 05:10:10;;;;;;;10.02;4.40;;;22.40;99.90;;;;;;5048968;28;20899;-49
2021/06/14 05:12:36;;;;;;;9.52;4.60;;;22.80;99.90;;;;;;5049771;28;20806;-49
2021/06/14 05:15:01;;;;;;;8.57;4.70;;;23.10;98.80;;;;;;5049887;28;20469;-49
2021/06/14 05:17:27;;;;;;;7.72;4.40;;;23.30;97.60;;;;;;5048802;28;20406;-49
2021/06/14 05:19:53;;;;;;;6.90;3.95;;;23.20;97.40;;;;;;5049829;28;21114;-49
2021/06/14 05:22:18;;;;;;;8.73;3.92;;;22.80;97.30;;;;;;5046458;28;20413;-49
2021/06/14 05:24:44;;;;;;;9.20;4.50;;;22.60;97.30;;;;;;5049556;28;20381;-50
2021/06/14 05:27:10;;;;;;;9.20;4.17;;;22.80;97.20;;;;;;5044299;28;20401;-53
2021/06/14 05:29:36;;;;;;;10.37;4.40;;;23.30;96.50;;;;;;5064236;28;20420;-50
2021/06/14 05:32:01;;;;;;;7.80;4.30;;;23.90;94.70;;;;;;5049993;28;20732;-50
2021/06/14 05:34:27;;;;;;;7.50;3.70;;;23.70;93.80;;;;;;5049232;28;20385;-50
2021/06/14 05:36:53;;;;;;;8.52;4.15;;;23.40;94.80;;;;;;5049597;28;20389;-51
2021/06/14 05:39:19;;;;;;;9.55;4.03;;;24.10;93.80;;;;;;5063941;28;20389;-50
2021/06/14 05:41:44;;;;;;;10.82;5.70;;;24.70;92.40;;;;;;5049875;28;20378;-49
2021/06/14 05:44:10;;;;;;;9.27;4.10;;;25.50;90.10;;;;;;5049063;28;20374;-49
2021/06/14 05:46:36;;;;;;;8.03;3.90;;;25.50;90.20;;;;;;5050232;28;20385;-48
2021/06/14 05:49:03;;;;;;;8.10;4.30;;;25.70;85.70;;;;;;5050212;28;20405;-49
2021/06/14 05:51:30;;;;;;;8.00;3.58;;;25.90;82.90;;;;;;5042757;28;21206;-49
2021/06/14 05:53:56;;;;;;;7.78;3.70;;;26.00;82.50;;;;;;5048891;28;20386;-49
2021/06/14 05:56:23;;;;;;;7.32;3.50;;;26.10;80.60;;;;;;5048843;28;20394;-49
2021/06/14 05:58:48;;;;;;;8.83;4.03;;;26.50;78.90;;;;;;5049662;28;20389;-49
2021/06/14 06:01:14;;;;;;;8.50;3.50;;;27.20;77.30;;;;;;5048423;28;20408;-49
2021/06/14 06:03:40;;;;;;;7.60;3.80;;;27.30;74.00;;;;;;5049515;28;20386;-50
2021/06/14 06:06:05;;;;;;;9.67;3.60;;;27.50;70.90;;;;;;5049698;28;20381;-51
2021/06/14 06:08:31;;;;;;;7.22;3.30;;;27.30;70.20;;;;;;5048493;28;20385;-49
2021/06/14 06:10:57;;;;;;;7.13;3.50;;;27.00;69.30;;;;;;5049012;28;20827;-51
2021/06/14 06:13:22;;;;;;;6.57;3.30;;;26.80;68.80;;;;;;5048966;28;20449;-50
2021/06/14 06:15:48;;;;;;;7.70;3.60;;;26.50;70.40;;;;;;5049396;28;20774;-49
2021/06/14 06:18:14;;;;;;;7.65;3.80;;;26.50;71.90;;;;;;5048181;28;20871;-50
2021/06/14 06:20:40;;;;;;;9.70;3.77;;;27.00;69.50;;;;;;5048730;28;20924;-50
2021/06/14 06:23:06;;;;;;;9.15;3.70;;;26.60;67.20;;;;;;5048949;28;20393;-54
2021/06/14 06:25:32;;;;;;;7.60;3.35;;;26.10;70.40;;;;;;5049083;28;20861;-49
2021/06/14 06:27:57;;;;;;;8.67;3.00;;;26.40;70.30;;;;;;5029858;28;20379;-50
2021/06/14 06:30:29;;;;;;;7.40;3.10;;;26.70;69.50;;;;;;5028488;28;20946;-51
2021/06/14 06:32:55;;;;;;;7.00;3.30;;;27.00;65.40;;;;;;5028954;28;20378;-52
2021/06/14 06:35:21;;;;;;;8.88;3.45;;;26.80;66.20;;;;;;5028162;28;20402;-50
2021/06/14 06:37:47;;;;;;;7.50;3.53;;;26.40;67.70;;;;;;5028330;28;20383;-49
2021/06/14 06:40:13;;;;;;;7.18;3.28;;;27.10;66.90;;;;;;5028342;28;20379;-50
2021/06/14 06:42:40;;;;;;;10.00;3.70;;;27.70;65.80;;;;;;5031483;28;20379;-49
2021/06/14 06:45:08;;;;;;;7.72;3.17;;;27.50;64.30;;;;;;5032722;28;20472;-55
2021/06/14 06:47:34;;;;;;;8.75;3.47;;;27.90;63.60;;;;;;5032458;28;20857;-50
2021/06/14 06:50:00;;;;;;;7.13;3.38;;;27.80;62.00;;;;;;5033115;28;20845;-50
2021/06/14 06:52:26;;;;;;;7.77;3.80;;;28.20;61.20;;;;;;5031473;28;20458;-50
2021/06/14 06:54:52;;;;;;;7.90;3.20;;;29.00;61.20;;;;;;5032546;28;20481;-50
2021/06/14 06:57:19;;;;;;;7.93;3.30;;;28.90;58.50;;;;;;5032323;28;20398;-50
2021/06/14 06:59:44;;;;;;;8.80;3.10;;;28.50;58.50;;;;;;5033115;28;21407;-50
2021/06/14 07:02:10;;;;;;;7.40;3.00;;;28.40;59.50;;;;;;5052096;28;20473;-54
2021/06/14 07:04:37;;;;;;;7.23;3.30;;;28.20;59.40;;;;;;5052176;28;20405;-50
2021/06/14 07:07:03;;;;;;;7.80;3.60;;;29.00;59.60;;;;;;5052586;28;20389;-50
2021/06/14 07:09:29;;;;;;;8.00;3.30;;;30.10;56.00;;;;;;5051749;28;20834;-51
2021/06/14 07:11:56;;;;;;;7.27;3.13;;;30.30;55.80;;;;;;5053068;28;20409;-50
2021/06/14 07:14:23;;;;;;;9.02;2.80;;;30.70;55.00;;;;;;5051588;28;20428;-50
2021/06/14 07:16:49;;;;;;;7.43;3.25;;;30.80;54.30;;;;;;5052432;28;20381;-50
2021/06/14 07:19:15;;;;;;;8.15;4.00;;;30.90;54.50;;;;;;5051349;28;20396;-50
2021/06/14 07:21:41;;;;;;;7.35;3.30;;;31.60;53.30;;;;;;5052163;28;20381;-51
2021/06/14 07:24:07;;;;;;;8.13;3.60;;;31.50;52.90;;;;;;5050441;28;20390;-51
2021/06/14 07:26:34;;;;;;;9.73;3.25;;;30.30;53.70;;;;;;5051822;28;20381;-50
2021/06/14 07:28:59;;;;;;;7.35;3.50;;;29.80;53.80;;;;;;5050706;28;20874;-51
2021/06/14 07:31:25;;;;;;;8.07;3.40;;;29.50;54.70;;;;;;5051522;28;20374;-50
2021/06/14 07:33:51;;;;;;;8.07;4.03;;;30.40;54.40;;;;;;5052324;28;20392;-51
2021/06/14 07:36:17;;;;;;;8.60;3.70;;;30.80;52.40;;;;;;5050983;28;20377;-50
2021/06/14 07:38:44;;;;;;;7.40;3.10;;;30.90;52.20;;;;;;5051834;28;20818;-50
2021/06/14 07:41:10;;;;;;;6.97;3.35;;;31.60;51.10;;;;;;5051458;28;20464;-50
2021/06/14 07:43:36;;;;;;;9.95;3.65;;;32.60;49.50;;;;;;5051600;28;20377;-50
2021/06/14 07:46:02;;;;;;;7.50;3.30;;;33.10;48.60;;;;;;5052162;28;20857;-49
2021/06/14 07:48:28;;;;;;;7.00;3.40;;;33.00;48.30;;;;;;5051201;28;20648;-50
2021/06/14 07:50:55;;;;;;;7.70;3.00;;;33.40;46.90;;;;;;5052118;28;20421;-50
2021/06/14 07:53:21;;;;;;;7.30;3.78;;;33.20;46.90;;;;;;5050771;28;20387;-49
2021/06/14 07:55:47;;;;;;;10.15;3.70;;;33.30;46.40;;;;;;5051127;28;20382;-50
2021/06/14 07:58:14;;;;;;;7.00;3.40;;;33.30;47.20;;;;;;5050443;28;20799;-50
2021/06/14 08:00:40;;;;;;;7.33;3.47;;;33.30;45.20;;;;;;5051311;28;20388;-49
2021/06/14 08:03:06;;;;;;;7.80;3.58;;;33.30;45.70;;;;;;5051804;28;20853;-50
2021/06/14 08:05:32;;;;;;;7.70;3.23;;;33.10;45.90;;;;;;5050248;28;20412;-50
2021/06/14 08:07:58;;;;;;;8.10;3.00;;;33.50;46.00;;;;;;5051499;28;20378;-51
2021/06/14 08:10:24;;;;;;;7.10;3.37;;;34.30;44.40;;;;;;5049963;28;20401;-51
2021/06/14 08:12:51;;;;;;;6.78;3.10;;;35.00;43.40;;;;;;5051008;28;20848;-50
2021/06/14 08:15:26;;;;;;;6.32;3.00;;;34.90;43.60;;;;;;5049187;28;20384;-51
2021/06/14 08:17:56;;;;;;;8.82;3.88;;;34.70;43.10;;;;;;5052200;28;20394;-51
2021/06/14 08:25:16;;;;;;;7.13;3.30;;;35.50;42.60;;;;;;5050079;28;20460;-51
2021/06/14 08:27:44;;;;;;;7.53;3.53;;;34.80;42.80;;;;;;5050867;28;20461;-53
2021/06/14 08:30:22;;;;;;;9.27;3.80;;;35.40;42.20;;;;;;5050230;28;20412;-56
2021/06/14 08:32:49;;;;;;;7.43;3.60;;;35.10;42.00;;;;;;5051196;28;20917;-52
2021/06/14 08:35:17;;;;;;;8.25;3.58;;;35.10;41.90;;;;;;5050115;28;20847;-51
2021/06/14 08:37:47;;;;;;;6.90;3.00;;;35.30;41.50;;;;;;5051022;28;20485;-51
2021/06/14 08:40:15;;;;;;;6.80;3.20;;;35.60;40.50;;;;;;5049366;28;20408;-56
2021/06/14 08:42:41;;;;;;;7.82;3.10;;;35.30;40.80;;;;;;5049952;28;20440;-50
2021/06/14 08:45:08;;;;;;;7.72;3.40;;;34.80;41.70;;;;;;5050292;28;20429;-50
2021/06/14 08:47:36;;;;;;;7.00;3.20;;;35.20;40.40;;;;;;5049939;28;20460;-49
2021/06/14 08:50:04;;;;;;;7.32;3.40;;;34.20;40.90;;;;;;5049616;28;20413;-50
2021/06/14 08:52:29;;;;;;;9.40;3.40;;;35.10;40.50;;;;;;5050316;28;20382;-51
2021/06/14 08:54:55;;;;;;;7.17;3.27;;;35.50;39.40;;;;;;5050053;28;20708;-50
2021/06/14 08:57:21;;;;;;;7.23;3.50;;;35.40;39.90;;;;;;5049557;28;20424;-50
2021/06/14 08:59:48;;;;;;;7.90;3.50;;;35.40;40.00;;;;;;5049752;28;20392;-51
2021/06/14 09:02:14;;;;;;;7.32;3.40;;;35.40;39.20;;;;;;5049792;28;20455;-54
2021/06/14 09:04:40;;;;;;;6.47;2.60;;;35.50;38.80;;;;;;5049439;28;20397;-50
2021/06/14 09:07:06;;;;;;;7.63;2.90;;;35.80;39.50;;;;;;5050424;28;20448;-52
2021/06/14 09:09:33;;;;;;;7.18;3.10;;;36.40;37.60;;;;;;5048889;28;20417;-51
2021/06/14 09:12:01;;;;;;;7.40;3.10;;;36.70;38.20;;;;;;5049981;28;20412;-51
2021/06/14 09:14:29;;;;;;;7.72;3.58;;;36.20;38.90;;;;;;5049700;28;20413;-52
2021/06/14 09:17:07;;;;;;;6.85;3.10;;;36.10;37.80;;;;;;5050270;28;20385;-51
2021/06/14 09:19:49;;;;;;;6.63;2.90;;;36.10;37.50;;;;;;5049497;28;20377;-50
2021/06/14 09:22:24;;;;;;;5.80;2.70;;;36.50;36.30;;;;;;5049788;28;20370;-51
2021/06/14 09:25:04;;;;;;;6.47;2.90;;;36.80;36.40;;;;;;5049645;28;20433;-50
2021/06/14 09:27:35;;;;;;;9.57;3.30;;;37.10;37.20;;;;;;5049130;28;20385;-50
2021/06/14 09:30:31;;;;;;;7.97;3.00;;;36.40;37.50;;;;;;5049791;28;20500;-50
2021/06/14 09:33:05;;;;;;;9.07;3.30;;;35.80;38.00;;;;;;5045343;28;20393;-50
2021/06/14 09:35:34;;;;;;;8.07;3.30;;;36.40;36.80;;;;;;5049617;28;20484;-50
2021/06/14 09:38:17;;;;;;;7.57;3.10;;;36.20;36.20;;;;;;5049580;28;20370;-50
2021/06/14 09:40:51;;;;;;;8.25;3.05;;;36.40;36.40;;;;;;5049720;28;20442;-50
2021/06/14 09:43:35;;;;;;;7.03;3.50;;;36.50;35.60;;;;;;5049037;28;20373;-50
2021/06/14 09:46:04;;;;;;;6.68;3.10;;;36.80;35.50;;;;;;5050243;28;20409;-50
2021/06/14 09:48:31;;;;;;;7.77;2.80;;;37.00;34.80;;;;;;5049116;28;20388;-51
2021/06/14 09:51:05;;;;;;;6.10;2.45;;;37.10;34.60;;;;;;5049220;28;20405;-50
2021/06/14 09:53:35;;;;;;;5.95;3.00;;;36.10;35.10;;;;;;5048615;28;20624;-50
2021/06/14 09:56:20;;;;;;;7.53;3.03;;;35.60;36.20;;;;;;5049502;28;20373;-50
2021/06/14 09:58:48;;;;;;;6.15;2.63;;;35.20;37.10;;;;;;5049480;28;20377;-50
2021/06/14 10:01:22;;;;;;;6.72;2.95;;;34.90;37.90;;;;;;5048318;28;20389;-51
2021/06/14 10:03:48;;;;;;;7.53;2.40;;;34.70;36.90;;;;;;5049460;28;20409;-51
2021/06/14 10:06:25;;;;;;;8.02;3.10;;;34.80;36.30;;;;;;5048750;28;20439;-51
2021/06/14 10:08:51;;;;;;;10.97;3.70;;;34.30;37.80;;;;;;5049432;28;20378;-50
2021/06/14 10:11:17;;;;;;;7.13;3.00;;;34.40;37.50;;;;;;5048016;28;20446;-50
2021/06/14 10:13:45;;;;;;;7.90;3.13;;;34.20;37.90;;;;;;5049421;28;20378;-51
2021/06/14 10:16:13;;;;;;;8.23;4.00;;;34.70;38.70;;;;;;5048927;28;20878;-54
2021/06/14 10:19:03;;;;;;;7.32;2.95;;;33.80;39.70;;;;;;5053381;28;20588;-51
2021/06/14 10:21:35;;;;;;;6.82;3.25;;;34.30;39.80;;;;;;5052444;28;20956;-51
2021/06/14 10:24:15;;;;;;;8.30;3.25;;;34.70;38.30;;;;;;5053749;28;20601;-51
2021/06/14 10:26:44;;;;;;;7.95;3.42;;;34.50;38.00;;;;;;5053478;28;20374;-51
2021/06/14 10:29:14;;;;;;;8.70;3.38;;;34.10;38.70;;;;;;5052721;28;21024;-50
2021/06/14 10:31:41;;;;;;;7.38;3.40;;;33.80;39.80;;;;;;5053061;28;20386;-50
2021/06/14 10:34:08;;;;;;;8.95;3.50;;;33.20;38.50;;;;;;5053434;28;20391;-51
2021/06/14 10:36:34;;;;;;;7.40;3.67;;;32.30;40.80;;;;;;5052316;28;20385;-50
2021/06/14 10:39:01;;;;;;;7.03;4.47;;;31.70;40.90;;;;;;5053161;28;20912;-50
2021/06/14 10:41:27;;;;;;;8.95;5.75;;;31.20;41.80;;;;;;5051944;28;20392;-50
2021/06/14 10:43:54;;;;;;;9.55;7.45;;;30.60;41.20;;;;;;5052519;28;20386;-51
2021/06/14 10:46:23;;;;;;;6.63;4.00;;;30.00;42.60;;;;;;5052110;28;20369;-51
2021/06/14 10:48:57;;;;;;;12.02;6.50;;;29.60;43.60;;;;;;5053208;28;20377;-50
2021/06/14 10:51:25;;;;;;;8.70;6.70;;;29.70;44.30;;;;;;5052602;28;20380;-50
2021/06/14 10:53:51;;;;;;;9.45;4.80;;;29.70;45.40;;;;;;5052837;28;20388;-50
2021/06/14 10:56:23;;;;;;;7.95;6.30;;;29.90;45.00;;;;;;5051904;28;20738;-52
2021/06/14 10:58:57;;;;;;;7.70;4.90;;;30.00;45.00;;;;;;5052306;28;20381;-50
2021/06/14 11:01:38;;;;;;;7.28;5.40;;;29.90;44.50;;;;;;5051639;28;20412;-50
2021/06/14 11:04:06;;;;;;;10.18;5.38;;;29.40;44.80;;;;;;5052329;28;20413;-52
2021/06/14 11:06:34;;;;;;;7.95;4.60;;;29.70;44.10;;;;;;5051626;28;20397;-51
2021/06/14 11:09:06;;;;;;;10.10;5.40;;;29.80;44.20;;;;;;5053070;28;20428;-51
2021/06/14 11:11:48;;;;;;;7.00;4.30;;;29.90;43.40;;;;;;5052215;28;20590;-51
2021/06/14 11:14:29;;;;;;;7.43;4.35;;;30.00;42.10;;;;;;5051694;28;20378;-54
2021/06/14 11:17:16;;;;;;;7.60;4.78;;;30.10;40.40;;;;;;5052036;28;20851;-50
2021/06/14 11:19:43;;;;;;;7.30;3.20;;;29.90;40.60;;;;;;5051679;28;20861;-51
2021/06/14 11:22:09;;;;;;;8.32;3.60;;;29.20;43.10;;;;;;5061017;28;20415;-50
2021/06/14 11:24:37;;;;;;;7.03;3.30;;;29.10;44.60;;;;;;5054636;28;20893;-50
2021/06/14 11:27:05;;;;;;;7.55;3.33;;;29.30;43.60;;;;;;5066781;28;20392;-51
2021/06/14 11:29:44;;;;;;;7.07;2.70;;;29.60;44.30;;;;;;5050923;28;21423;-49
2021/06/14 11:32:10;;;;;;;7.50;3.37;;;29.70;44.20;;;;;;5052117;28;20412;-50
2021/06/14 11:34:40;;;;;;;7.68;3.70;;;29.80;44.70;;;;;;5050566;28;20405;-51
2021/06/14 11:37:07;;;;;;;7.43;3.60;;;29.80;43.80;;;;;;5052478;28;20388;-51
2021/06/14 11:39:34;;;;;;;8.10;2.80;;;29.50;45.00;;;;;;5050794;28;20771;-50
2021/06/14 11:42:20;;;;;;;6.17;2.87;;;29.60;43.30;;;;;;5051651;28;20461;-51
2021/06/14 11:44:50;;;;;;;6.25;3.00;;;29.50;44.60;;;;;;5051538;28;20377;-51
2021/06/14 11:47:19;;;;;;;8.23;2.80;;;29.60;43.20;;;;;;5050530;28;20369;-54
2021/06/14 11:49:47;;;;;;;6.05;3.03;;;29.60;44.90;;;;;;5064150;28;20801;-49
2021/06/14 11:52:27;;;;;;;6.70;2.50;;;29.50;41.80;;;;;;5049700;28;20866;-53
2021/06/14 11:54:57;;;;;;;9.63;2.70;;;29.50;43.20;;;;;;5047122;28;20389;-51
2021/06/14 11:57:32;;;;;;;6.10;2.40;;;29.70;41.40;;;;;;5050660;28;20386;-50
2021/06/14 11:59:58;;;;;;;7.13;3.10;;;29.60;41.90;;;;;;5051086;28;20381;-50
2021/06/14 12:02:28;;;;;;;6.20;3.30;;;29.60;41.70;;;;;;5050317;28;20382;-50
2021/06/14 12:04:59;;;;;;;8.10;2.90;;;29.70;43.10;;;;;;5050940;28;20444;-50
2021/06/14 12:07:39;;;;;;;6.90;3.17;;;29.60;43.30;;;;;;5050269;28;20381;-51
2021/06/14 12:10:11;;;;;;;7.85;2.60;;;29.50;43.50;;;;;;5050969;28;20512;-50
2021/06/14 12:12:38;;;;;;;5.70;2.75;;;29.10;42.20;;;;;;5049321;28;20393;-50
2021/06/14 12:15:06;;;;;;;5.70;2.20;;;29.10;43.30;;;;;;5050894;28;20409;-49
2021/06/14 12:17:35;;;;;;;8.10;3.17;;;29.20;42.40;;;;;;5050314;28;20886;-50
2021/06/14 12:20:01;;;;;;;9.60;3.25;;;29.40;42.60;;;;;;5050688;28;20533;-50
2021/06/14 12:22:28;;;;;;;5.80;2.90;;;29.70;43.90;;;;;;5048700;28;20778;-49
2021/06/14 12:24:59;;;;;;;6.50;2.70;;;29.90;44.10;;;;;;5050933;28;20511;-50
2021/06/14 12:27:26;;;;;;;8.38;2.70;;;30.00;42.10;;;;;;5050309;28;20378;-50
2021/06/14 12:30:00;;;;;;;6.70;3.00;;;29.80;42.20;;;;;;5050238;28;20413;-52
2021/06/14 12:32:29;;;;;;;5.30;2.30;;;29.90;43.10;;;;;;5049378;28;20468;-50
2021/06/14 12:34:59;;;;;;;9.70;2.90;;;29.80;41.00;;;;;;5050696;28;20405;-50
2021/06/14 12:37:25;;;;;;;7.65;2.90;;;29.70;41.10;;;;;;5049562;28;20381;-51
2021/06/14 12:39:58;;;;;;;7.25;3.20;;;29.40;43.70;;;;;;5049491;28;20408;-49
2021/06/14 12:42:24;;;;;;;8.98;2.60;;;29.50;43.80;;;;;;5049700;28;20417;-50
2021/06/14 12:45:05;;;;;;;7.10;3.20;;;29.30;42.90;;;;;;5050532;28;20402;-51
2021/06/14 12:47:31;;;;;;;6.90;3.10;;;29.30;42.80;;;;;;5049640;28;20420;-51
2021/06/14 12:49:59;;;;;;;6.30;2.90;;;29.50;43.70;;;;;;5048900;28;20922;-51
2021/06/14 12:52:28;;;;;;;6.50;2.90;;;29.50;43.40;;;;;;5049742;28;20385;-50
2021/06/14 12:54:54;;;;;;;7.38;2.95;;;29.60;43.00;;;;;;5050214;28;20369;-51
2021/06/14 12:57:24;;;;;;;8.10;3.10;;;29.60;42.80;;;;;;5049099;28;20408;-50